sensor_id;sensor_type;location;lat;lon;timestamp;temperature;humidity
33207;DHT22;19565;46.602;11.534;2023-08-17T00:02:17;22.70;99.90
33207;DHT22;19565;46.602;11.534;2023-08-17T00:04:45;22.70;99.90
33207;DHT22;19565;46.602;11.534;2023-08-17T00:07:13;22.70;99.90
33207;DHT22;19565;46.602;11.534;2023-08-17T00:09:43;22.70;99.90
33207;DHT22;19565;46.602;11.534;2023-08-17T00:12:11;22.70;99.90
33207;DHT22;19565;46.602;11.534;2023-08-17T00:14:39;22.70;99.90
33207;DHT22;19565;46.602;11.534;2023-08-17T00:17:07;22.70;99.90
33207;DHT22;19565;46.602;11.534;2023-08-17T00:19:35;22.70;99.90
33207;DHT22;19565;46.602;11.534;2023-08-17T00:22:03;22.70;99.90
33207;DHT22;19565;46.602;11.534;2023-08-17T00:24:31;22.70;99.90
33207;DHT22;19565;46.602;11.534;2023-08-17T00:27:00;22.70;99.90
33207;DHT22;19565;46.602;11.534;2023-08-17T00:29:30;22.70;99.90
33207;DHT22;19565;46.602;11.534;2023-08-17T00:31:58;22.70;99.90
33207;DHT22;19565;46.602;11.534;2023-08-17T00:34:28;22.70;99.90
33207;DHT22;19565;46.602;11.534;2023-08-17T00:36:55;22.70;99.90
33207;DHT22;19565;46.602;11.534;2023-08-17T00:39:23;22.70;99.90
33207;DHT22;19565;46.602;11.534;2023-08-17T00:41:52;22.70;99.90
33207;DHT22;19565;46.602;11.534;2023-08-17T00:44:21;22.70;99.90
33207;DHT22;19565;46.602;11.534;2023-08-17T00:46:49;22.70;99.90
33207;DHT22;19565;46.602;11.534;2023-08-17T00:49:17;22.60;99.90
33207;DHT22;19565;46.602;11.534;2023-08-17T00:51:45;22.60;99.90
33207;DHT22;19565;46.602;11.534;2023-08-17T00:54:13;22.60;99.90
33207;DHT22;19565;46.602;11.534;2023-08-17T00:56:43;22.60;99.90
33207;DHT22;19565;46.602;11.534;2023-08-17T00:59:11;22.60;99.90
33207;DHT22;19565;46.602;11.534;2023-08-17T01:01:41;22.60;99.90
33207;DHT22;19565;46.602;11.534;2023-08-17T01:04:10;22.60;99.90
33207;DHT22;19565;46.602;11.534;2023-08-17T01:06:38;22.60;99.90
33207;DHT22;19565;46.602;11.534;2023-08-17T01:09:07;22.50;99.90
33207;DHT22;19565;46.602;11.534;2023-08-17T01:11:39;22.60;99.90
33207;DHT22;19565;46.602;11.534;2023-08-17T01:14:14;22.60;99.90
33207;DHT22;19565;46.602;11.534;2023-08-17T01:16:54;22.60;99.90
33207;DHT22;19565;46.602;11.534;2023-08-17T01:19:26;22.60;99.90
33207;DHT22;19565;46.602;11.534;2023-08-17T01:21:57;22.60;99.90
33207;DHT22;19565;46.602;11.534;2023-08-17T01:24:29;22.60;99.90
33207;DHT22;19565;46.602;11.534;2023-08-17T01:26:57;22.60;99.90
33207;DHT22;19565;46.602;11.534;2023-08-17T01:29:25;22.60;99.90
33207;DHT22;19565;46.602;11.534;2023-08-17T01:31:58;22.60;99.90
33207;DHT22;19565;46.602;11.534;2023-08-17T01:34:29;22.60;99.90
33207;DHT22;19565;46.602;11.534;2023-08-17T01:37:01;22.50;99.90
33207;DHT22;19565;46.602;11.534;2023-08-17T01:39:37;22.50;99.90
33207;DHT22;19565;46.602;11.534;2023-08-17T01:42:05;22.50;99.90
33207;DHT22;19565;46.602;11.534;2023-08-17T01:44:34;22.50;99.90
33207;DHT22;19565;46.602;11.534;2023-08-17T01:47:02;22.50;99.90
33207;DHT22;19565;46.602;11.534;2023-08-17T01:49:31;22.50;99.90
33207;DHT22;19565;46.602;11.534;2023-08-17T01:51:59;22.50;99.90
33207;DHT22;19565;46.602;11.534;2023-08-17T01:54:27;22.50;99.90
33207;DHT22;19565;46.602;11.534;2023-08-17T01:56:57;22.40;99.90
33207;DHT22;19565;46.602;11.534;2023-08-17T01:59:25;22.40;99.90
33207;DHT22;19565;46.602;11.534;2023-08-17T02:01:53;22.40;99.90
33207;DHT22;19565;46.602;11.534;2023-08-17T02:04:21;22.40;99.90
33207;DHT22;19565;46.602;11.534;2023-08-17T02:06:49;22.40;99.90
33207;DHT22;19565;46.602;11.534;2023-08-17T02:09:17;22.40;99.90
33207;DHT22;19565;46.602;11.534;2023-08-17T02:11:44;22.40;99.90
33207;DHT22;19565;46.602;11.534;2023-08-17T02:14:14;22.40;99.90
33207;DHT22;19565;46.602;11.534;2023-08-17T02:16:42;22.40;99.90
33207;DHT22;19565;46.602;11.534;2023-08-17T02:19:10;22.40;99.90
33207;DHT22;19565;46.602;11.534;2023-08-17T02:21:38;22.40;99.90
33207;DHT22;19565;46.602;11.534;2023-08-17T02:24:06;22.30;99.90
33207;DHT22;19565;46.602;11.534;2023-08-17T02:26:34;22.30;99.90
33207;DHT22;19565;46.602;11.534;2023-08-17T02:29:02;22.30;99.90
33207;DHT22;19565;46.602;11.534;2023-08-17T02:31:32;22.30;99.90
33207;DHT22;19565;46.602;11.534;2023-08-17T02:34:00;22.30;99.90
33207;DHT22;19565;46.602;11.534;2023-08-17T02:36:32;22.30;99.90
33207;DHT22;19565;46.602;11.534;2023-08-17T02:39:02;22.30;99.90
33207;DHT22;19565;46.602;11.534;2023-08-17T02:41:30;22.30;99.90
33207;DHT22;19565;46.602;11.534;2023-08-17T02:43:59;22.20;99.90
33207;DHT22;19565;46.602;11.534;2023-08-17T02:46:27;22.20;99.90
33207;DHT22;19565;46.602;11.534;2023-08-17T02:48:56;22.20;99.90
33207;DHT22;19565;46.602;11.534;2023-08-17T02:51:24;22.10;99.90
33207;DHT22;19565;46.602;11.534;2023-08-17T02:53:53;22.10;99.90
33207;DHT22;19565;46.602;11.534;2023-08-17T02:56:21;22.10;99.90
33207;DHT22;19565;46.602;11.534;2023-08-17T02:58:49;22.10;99.90
33207;DHT22;19565;46.602;11.534;2023-08-17T03:01:17;22.10;99.90
33207;DHT22;19565;46.602;11.534;2023-08-17T03:03:45;22.20;99.90
33207;DHT22;19565;46.602;11.534;2023-08-17T03:06:14;22.10;99.90
33207;DHT22;19565;46.602;11.534;2023-08-17T03:08:42;22.10;99.90
33207;DHT22;19565;46.602;11.534;2023-08-17T03:11:10;22.10;99.90
33207;DHT22;19565;46.602;11.534;2023-08-17T03:13:38;22.10;99.90
33207;DHT22;19565;46.602;11.534;2023-08-17T03:16:06;22.00;99.90
33207;DHT22;19565;46.602;11.534;2023-08-17T03:18:34;22.00;99.90
33207;DHT22;19565;46.602;11.534;2023-08-17T03:21:02;22.00;99.90
33207;DHT22;19565;46.602;11.534;2023-08-17T03:23:32;22.00;99.90
33207;DHT22;19565;46.602;11.534;2023-08-17T03:26:00;21.90;99.90
33207;DHT22;19565;46.602;11.534;2023-08-17T03:28:28;21.90;99.90
33207;DHT22;19565;46.602;11.534;2023-08-17T03:30:56;21.90;99.90
33207;DHT22;19565;46.602;11.534;2023-08-17T03:33:24;21.90;99.90
33207;DHT22;19565;46.602;11.534;2023-08-17T03:35:52;21.90;99.90
33207;DHT22;19565;46.602;11.534;2023-08-17T03:38:20;21.90;99.90
33207;DHT22;19565;46.602;11.534;2023-08-17T03:40:49;21.80;99.90
33207;DHT22;19565;46.602;11.534;2023-08-17T03:43:17;21.80;99.90
33207;DHT22;19565;46.602;11.534;2023-08-17T03:45:45;21.80;99.90
33207;DHT22;19565;46.602;11.534;2023-08-17T03:48:13;21.80;99.90
33207;DHT22;19565;46.602;11.534;2023-08-17T03:50:41;21.80;99.90
33207;DHT22;19565;46.602;11.534;2023-08-17T03:53:09;21.80;99.90
33207;DHT22;19565;46.602;11.534;2023-08-17T03:55:37;21.80;99.90
33207;DHT22;19565;46.602;11.534;2023-08-17T03:58:06;21.70;99.90
33207;DHT22;19565;46.602;11.534;2023-08-17T04:00:34;21.70;99.90
33207;DHT22;19565;46.602;11.534;2023-08-17T04:03:03;21.70;99.90
33207;DHT22;19565;46.602;11.534;2023-08-17T04:05:31;21.70;99.90
33207;DHT22;19565;46.602;11.534;2023-08-17T04:08:00;21.80;99.90
33207;DHT22;19565;46.602;11.534;2023-08-17T04:10:29;21.70;99.90
33207;DHT22;19565;46.602;11.534;2023-08-17T04:12:57;21.70;99.90
33207;DHT22;19565;46.602;11.534;2023-08-17T04:15:26;21.70;99.90
33207;DHT22;19565;46.602;11.534;2023-08-17T04:17:54;21.60;99.90
33207;DHT22;19565;46.602;11.534;2023-08-17T04:20:22;21.60;99.90
33207;DHT22;19565;46.602;11.534;2023-08-17T04:22:52;21.60;99.90
33207;DHT22;19565;46.602;11.534;2023-08-17T04:25:20;21.60;99.90
33207;DHT22;19565;46.602;11.534;2023-08-17T04:27:47;21.60;99.90
33207;DHT22;19565;46.602;11.534;2023-08-17T04:30:15;21.60;99.90
33207;DHT22;19565;46.602;11.534;2023-08-17T04:32:45;21.50;99.90
33207;DHT22;19565;46.602;11.534;2023-08-17T04:35:17;21.50;99.90
33207;DHT22;19565;46.602;11.534;2023-08-17T04:37:45;21.50;99.90
33207;DHT22;19565;46.602;11.534;2023-08-17T04:40:14;21.50;99.90
33207;DHT22;19565;46.602;11.534;2023-08-17T04:42:42;21.40;99.90
33207;DHT22;19565;46.602;11.534;2023-08-17T04:45:10;21.50;99.90
33207;DHT22;19565;46.602;11.534;2023-08-17T04:47:38;21.40;99.90
33207;DHT22;19565;46.602;11.534;2023-08-17T04:50:08;21.40;99.90
33207;DHT22;19565;46.602;11.534;2023-08-17T04:52:37;21.40;99.90
33207;DHT22;19565;46.602;11.534;2023-08-17T04:55:05;21.40;99.90
33207;DHT22;19565;46.602;11.534;2023-08-17T04:57:33;21.30;99.90
33207;DHT22;19565;46.602;11.534;2023-08-17T05:00:03;21.40;99.90
33207;DHT22;19565;46.602;11.534;2023-08-17T05:02:35;21.40;99.90
33207;DHT22;19565;46.602;11.534;2023-08-17T05:05:05;21.40;99.90
33207;DHT22;19565;46.602;11.534;2023-08-17T05:07:35;21.40;99.90
33207;DHT22;19565;46.602;11.534;2023-08-17T05:10:03;21.40;99.90
33207;DHT22;19565;46.602;11.534;2023-08-17T05:12:31;21.40;99.90
33207;DHT22;19565;46.602;11.534;2023-08-17T05:14:59;21.40;99.90
33207;DHT22;19565;46.602;11.534;2023-08-17T05:17:27;21.40;99.90
33207;DHT22;19565;46.602;11.534;2023-08-17T05:19:55;21.50;99.90
33207;DHT22;19565;46.602;11.534;2023-08-17T05:22:23;21.40;99.90
33207;DHT22;19565;46.602;11.534;2023-08-17T05:24:53;21.30;99.90
33207;DHT22;19565;46.602;11.534;2023-08-17T05:27:21;21.30;99.90
33207;DHT22;19565;46.602;11.534;2023-08-17T05:29:48;21.30;99.90
33207;DHT22;19565;46.602;11.534;2023-08-17T05:32:16;21.20;99.90
33207;DHT22;19565;46.602;11.534;2023-08-17T05:34:44;21.20;99.90
33207;DHT22;19565;46.602;11.534;2023-08-17T05:37:12;21.10;99.90
33207;DHT22;19565;46.602;11.534;2023-08-17T05:39:41;21.20;99.90
33207;DHT22;19565;46.602;11.534;2023-08-17T05:42:10;21.10;99.90
33207;DHT22;19565;46.602;11.534;2023-08-17T05:44:39;21.10;99.90
33207;DHT22;19565;46.602;11.534;2023-08-17T05:47:07;21.00;99.90
33207;DHT22;19565;46.602;11.534;2023-08-17T05:49:35;21.00;99.90
33207;DHT22;19565;46.602;11.534;2023-08-17T05:52:05;20.70;99.90
33207;DHT22;19565;46.602;11.534;2023-08-17T05:54:33;20.80;99.90
33207;DHT22;19565;46.602;11.534;2023-08-17T05:57:01;20.90;99.90
33207;DHT22;19565;46.602;11.534;2023-08-17T05:59:31;20.90;99.90
33207;DHT22;19565;46.602;11.534;2023-08-17T06:01:59;20.70;99.90
33207;DHT22;19565;46.602;11.534;2023-08-17T06:04:27;20.60;99.90
33207;DHT22;19565;46.602;11.534;2023-08-17T06:06:55;20.60;99.90
33207;DHT22;19565;46.602;11.534;2023-08-17T06:09:23;20.60;99.90
33207;DHT22;19565;46.602;11.534;2023-08-17T06:11:51;20.60;99.90
33207;DHT22;19565;46.602;11.534;2023-08-17T06:14:19;20.60;99.90
33207;DHT22;19565;46.602;11.534;2023-08-17T06:16:48;20.60;99.90
33207;DHT22;19565;46.602;11.534;2023-08-17T06:19:16;20.60;99.90
33207;DHT22;19565;46.602;11.534;2023-08-17T06:21:44;20.70;99.90
33207;DHT22;19565;46.602;11.534;2023-08-17T06:24:12;20.70;99.90
33207;DHT22;19565;46.602;11.534;2023-08-17T06:26:40;20.80;99.90
33207;DHT22;19565;46.602;11.534;2023-08-17T06:29:08;21.00;99.90
33207;DHT22;19565;46.602;11.534;2023-08-17T06:31:36;21.10;99.90
33207;DHT22;19565;46.602;11.534;2023-08-17T06:34:05;21.20;99.90
33207;DHT22;19565;46.602;11.534;2023-08-17T06:36:33;21.30;99.90
33207;DHT22;19565;46.602;11.534;2023-08-17T06:39:04;21.30;99.90
33207;DHT22;19565;46.602;11.534;2023-08-17T06:41:32;21.40;99.90
33207;DHT22;19565;46.602;11.534;2023-08-17T06:44:00;21.50;99.90
33207;DHT22;19565;46.602;11.534;2023-08-17T06:46:28;21.50;99.90
33207;DHT22;19565;46.602;11.534;2023-08-17T06:48:56;21.60;99.90
33207;DHT22;19565;46.602;11.534;2023-08-17T06:51:26;21.60;99.90
33207;DHT22;19565;46.602;11.534;2023-08-17T06:53:54;21.70;99.90
33207;DHT22;19565;46.602;11.534;2023-08-17T06:56:22;21.80;99.90
33207;DHT22;19565;46.602;11.534;2023-08-17T06:58:50;21.90;99.90
33207;DHT22;19565;46.602;11.534;2023-08-17T07:01:18;21.90;99.90
33207;DHT22;19565;46.602;11.534;2023-08-17T07:03:46;22.00;99.90
33207;DHT22;19565;46.602;11.534;2023-08-17T07:06:14;22.00;99.90
33207;DHT22;19565;46.602;11.534;2023-08-17T07:08:43;22.10;99.90
33207;DHT22;19565;46.602;11.534;2023-08-17T07:11:12;22.10;99.90
33207;DHT22;19565;46.602;11.534;2023-08-17T07:13:40;22.20;99.90
33207;DHT22;19565;46.602;11.534;2023-08-17T07:16:08;22.20;99.90
33207;DHT22;19565;46.602;11.534;2023-08-17T07:18:36;22.20;99.90
33207;DHT22;19565;46.602;11.534;2023-08-17T07:21:04;22.20;99.90
33207;DHT22;19565;46.602;11.534;2023-08-17T07:23:32;22.20;99.90
33207;DHT22;19565;46.602;11.534;2023-08-17T07:26:01;22.10;99.90
33207;DHT22;19565;46.602;11.534;2023-08-17T07:28:30;22.10;99.90
33207;DHT22;19565;46.602;11.534;2023-08-17T07:30:58;22.10;99.90
33207;DHT22;19565;46.602;11.534;2023-08-17T07:33:26;22.20;99.90
33207;DHT22;19565;46.602;11.534;2023-08-17T07:35:54;22.30;99.90
33207;DHT22;19565;46.602;11.534;2023-08-17T07:38:22;22.40;99.90
33207;DHT22;19565;46.602;11.534;2023-08-17T07:40:50;22.40;99.90
33207;DHT22;19565;46.602;11.534;2023-08-17T07:43:20;22.40;99.90
33207;DHT22;19565;46.602;11.534;2023-08-17T07:45:53;22.50;99.90
33207;DHT22;19565;46.602;11.534;2023-08-17T07:48:21;22.50;99.90
33207;DHT22;19565;46.602;11.534;2023-08-17T07:50:49;22.60;99.90
33207;DHT22;19565;46.602;11.534;2023-08-17T07:53:18;22.60;99.90
33207;DHT22;19565;46.602;11.534;2023-08-17T07:55:46;22.60;99.90
33207;DHT22;19565;46.602;11.534;2023-08-17T07:58:17;22.70;99.90
33207;DHT22;19565;46.602;11.534;2023-08-17T08:00:46;22.70;99.90
33207;DHT22;19565;46.602;11.534;2023-08-17T08:03:14;22.80;99.90
33207;DHT22;19565;46.602;11.534;2023-08-17T08:05:42;22.80;99.90
33207;DHT22;19565;46.602;11.534;2023-08-17T08:08:10;22.80;99.90
33207;DHT22;19565;46.602;11.534;2023-08-17T08:10:38;22.80;99.90
33207;DHT22;19565;46.602;11.534;2023-08-17T08:13:07;22.90;99.90
33207;DHT22;19565;46.602;11.534;2023-08-17T08:15:35;22.90;99.90
33207;DHT22;19565;46.602;11.534;2023-08-17T08:18:05;22.90;99.90
33207;DHT22;19565;46.602;11.534;2023-08-17T08:20:33;23.00;99.90
33207;DHT22;19565;46.602;11.534;2023-08-17T08:23:01;23.00;99.90
33207;DHT22;19565;46.602;11.534;2023-08-17T08:25:30;23.10;99.90
33207;DHT22;19565;46.602;11.534;2023-08-17T08:27:58;23.20;99.90
33207;DHT22;19565;46.602;11.534;2023-08-17T08:30:26;23.20;99.90
33207;DHT22;19565;46.602;11.534;2023-08-17T08:32:54;23.30;99.90
33207;DHT22;19565;46.602;11.534;2023-08-17T08:35:26;23.30;99.90
33207;DHT22;19565;46.602;11.534;2023-08-17T08:37:58;23.30;99.90
33207;DHT22;19565;46.602;11.534;2023-08-17T08:40:28;23.40;99.90
33207;DHT22;19565;46.602;11.534;2023-08-17T08:42:57;23.40;99.90
33207;DHT22;19565;46.602;11.534;2023-08-17T08:45:28;23.40;99.90
33207;DHT22;19565;46.602;11.534;2023-08-17T08:47:58;23.40;99.90
33207;DHT22;19565;46.602;11.534;2023-08-17T08:50:31;23.40;99.90
33207;DHT22;19565;46.602;11.534;2023-08-17T08:53:00;23.40;99.70
33207;DHT22;19565;46.602;11.534;2023-08-17T08:55:34;23.50;99.70
33207;DHT22;19565;46.602;11.534;2023-08-17T08:58:04;23.50;99.20
33207;DHT22;19565;46.602;11.534;2023-08-17T09:00:33;23.50;98.80
33207;DHT22;19565;46.602;11.534;2023-08-17T09:03:02;23.60;98.80
33207;DHT22;19565;46.602;11.534;2023-08-17T09:05:39;23.70;98.70
33207;DHT22;19565;46.602;11.534;2023-08-17T09:08:08;23.70;98.60
33207;DHT22;19565;46.602;11.534;2023-08-17T09:10:42;23.70;98.00
33207;DHT22;19565;46.602;11.534;2023-08-17T09:13:10;23.80;98.00
33207;DHT22;19565;46.602;11.534;2023-08-17T09:15:38;23.80;98.90
33207;DHT22;19565;46.602;11.534;2023-08-17T09:18:06;23.90;99.30
33207;DHT22;19565;46.602;11.534;2023-08-17T09:20:41;23.90;99.10
33207;DHT22;19565;46.602;11.534;2023-08-17T09:23:15;24.00;99.60
33207;DHT22;19565;46.602;11.534;2023-08-17T09:25:44;24.10;99.20
33207;DHT22;19565;46.602;11.534;2023-08-17T09:28:14;24.10;98.60
33207;DHT22;19565;46.602;11.534;2023-08-17T09:30:53;24.20;98.00
33207;DHT22;19565;46.602;11.534;2023-08-17T09:33:22;24.20;98.10
33207;DHT22;19565;46.602;11.534;2023-08-17T09:35:52;24.20;97.20
33207;DHT22;19565;46.602;11.534;2023-08-17T09:38:23;24.30;97.00
33207;DHT22;19565;46.602;11.534;2023-08-17T09:40:52;24.30;96.60
33207;DHT22;19565;46.602;11.534;2023-08-17T09:43:20;24.30;96.00
33207;DHT22;19565;46.602;11.534;2023-08-17T09:45:49;24.40;96.00
33207;DHT22;19565;46.602;11.534;2023-08-17T09:48:18;24.40;96.10
33207;DHT22;19565;46.602;11.534;2023-08-17T09:50:48;24.50;96.00
33207;DHT22;19565;46.602;11.534;2023-08-17T09:53:18;24.60;96.30
33207;DHT22;19565;46.602;11.534;2023-08-17T09:55:46;24.60;95.70
33207;DHT22;19565;46.602;11.534;2023-08-17T09:58:14;24.60;96.30
33207;DHT22;19565;46.602;11.534;2023-08-17T10:00:44;24.70;96.60
33207;DHT22;19565;46.602;11.534;2023-08-17T10:03:17;24.80;96.60
33207;DHT22;19565;46.602;11.534;2023-08-17T10:05:51;24.80;96.40
33207;DHT22;19565;46.602;11.534;2023-08-17T10:08:23;24.90;95.80
33207;DHT22;19565;46.602;11.534;2023-08-17T10:10:51;25.00;95.20
33207;DHT22;19565;46.602;11.534;2023-08-17T10:13:27;25.00;95.50
33207;DHT22;19565;46.602;11.534;2023-08-17T10:16:02;25.10;95.60
33207;DHT22;19565;46.602;11.534;2023-08-17T10:18:35;25.10;95.50
33207;DHT22;19565;46.602;11.534;2023-08-17T10:21:07;25.20;95.80
33207;DHT22;19565;46.602;11.534;2023-08-17T10:23:39;25.20;95.50
33207;DHT22;19565;46.602;11.534;2023-08-17T10:26:09;25.20;94.80
33207;DHT22;19565;46.602;11.534;2023-08-17T10:28:38;25.30;94.70
33207;DHT22;19565;46.602;11.534;2023-08-17T10:31:07;25.40;94.90
33207;DHT22;19565;46.602;11.534;2023-08-17T10:33:37;25.40;94.80
33207;DHT22;19565;46.602;11.534;2023-08-17T10:36:08;25.50;94.50
33207;DHT22;19565;46.602;11.534;2023-08-17T10:38:36;25.50;94.50
33207;DHT22;19565;46.602;11.534;2023-08-17T10:41:10;25.60;94.60
33207;DHT22;19565;46.602;11.534;2023-08-17T10:43:53;25.60;94.80
33207;DHT22;19565;46.602;11.534;2023-08-17T10:46:21;25.70;95.40
33207;DHT22;19565;46.602;11.534;2023-08-17T10:49:02;25.80;95.60
33207;DHT22;19565;46.602;11.534;2023-08-17T10:51:31;25.80;95.80
33207;DHT22;19565;46.602;11.534;2023-08-17T10:54:02;25.80;95.40
33207;DHT22;19565;46.602;11.534;2023-08-17T10:56:32;25.80;96.20
33207;DHT22;19565;46.602;11.534;2023-08-17T10:59:01;25.80;95.40
33207;DHT22;19565;46.602;11.534;2023-08-17T11:01:33;25.80;94.70
33207;DHT22;19565;46.602;11.534;2023-08-17T11:04:12;25.80;94.50
33207;DHT22;19565;46.602;11.534;2023-08-17T11:06:42;25.80;93.30
33207;DHT22;19565;46.602;11.534;2023-08-17T11:09:10;25.90;93.20
33207;DHT22;19565;46.602;11.534;2023-08-17T11:11:40;25.90;92.50
33207;DHT22;19565;46.602;11.534;2023-08-17T11:14:08;26.00;91.80
33207;DHT22;19565;46.602;11.534;2023-08-17T11:16:36;26.00;91.80
33207;DHT22;19565;46.602;11.534;2023-08-17T11:19:04;26.10;91.60
33207;DHT22;19565;46.602;11.534;2023-08-17T11:21:38;26.10;91.80
33207;DHT22;19565;46.602;11.534;2023-08-17T11:24:06;26.20;92.70
33207;DHT22;19565;46.602;11.534;2023-08-17T11:26:36;26.20;92.00
33207;DHT22;19565;46.602;11.534;2023-08-17T11:29:05;26.30;92.10
33207;DHT22;19565;46.602;11.534;2023-08-17T11:31:33;26.30;91.90
33207;DHT22;19565;46.602;11.534;2023-08-17T11:34:01;26.40;91.90
33207;DHT22;19565;46.602;11.534;2023-08-17T11:36:29;26.40;91.90
33207;DHT22;19565;46.602;11.534;2023-08-17T11:38:58;26.50;91.20
33207;DHT22;19565;46.602;11.534;2023-08-17T11:41:26;26.50;90.90
33207;DHT22;19565;46.602;11.534;2023-08-17T11:43:55;26.50;90.50
33207;DHT22;19565;46.602;11.534;2023-08-17T11:46:24;26.60;90.60
33207;DHT22;19565;46.602;11.534;2023-08-17T11:48:58;26.60;90.70
33207;DHT22;19565;46.602;11.534;2023-08-17T11:51:29;26.70;90.90
33207;DHT22;19565;46.602;11.534;2023-08-17T11:53:59;26.80;91.70
33207;DHT22;19565;46.602;11.534;2023-08-17T11:56:27;26.90;91.70
33207;DHT22;19565;46.602;11.534;2023-08-17T11:58:55;27.00;91.40
33207;DHT22;19565;46.602;11.534;2023-08-17T12:01:24;27.00;90.40
33207;DHT22;19565;46.602;11.534;2023-08-17T12:03:53;27.00;90.30
33207;DHT22;19565;46.602;11.534;2023-08-17T12:06:21;27.10;90.10
33207;DHT22;19565;46.602;11.534;2023-08-17T12:08:49;27.10;90.00
33207;DHT22;19565;46.602;11.534;2023-08-17T12:11:18;27.10;90.00
33207;DHT22;19565;46.602;11.534;2023-08-17T12:13:49;27.20;90.20
33207;DHT22;19565;46.602;11.534;2023-08-17T12:16:18;27.20;90.60
33207;DHT22;19565;46.602;11.534;2023-08-17T12:18:49;27.20;90.30
33207;DHT22;19565;46.602;11.534;2023-08-17T12:21:19;27.20;90.50
33207;DHT22;19565;46.602;11.534;2023-08-17T12:23:48;27.40;91.00
33207;DHT22;19565;46.602;11.534;2023-08-17T12:26:18;27.40;90.80
33207;DHT22;19565;46.602;11.534;2023-08-17T12:28:46;27.40;90.50
33207;DHT22;19565;46.602;11.534;2023-08-17T12:31:21;27.50;90.80
33207;DHT22;19565;46.602;11.534;2023-08-17T12:33:51;27.50;90.90
33207;DHT22;19565;46.602;11.534;2023-08-17T12:36:19;27.60;91.10
33207;DHT22;19565;46.602;11.534;2023-08-17T12:38:48;27.70;91.40
33207;DHT22;19565;46.602;11.534;2023-08-17T12:41:16;27.60;91.20
33207;DHT22;19565;46.602;11.534;2023-08-17T12:43:45;27.70;91.50
33207;DHT22;19565;46.602;11.534;2023-08-17T12:46:13;27.70;90.70
33207;DHT22;19565;46.602;11.534;2023-08-17T12:48:42;27.70;90.60
33207;DHT22;19565;46.602;11.534;2023-08-17T12:51:11;27.70;90.70
33207;DHT22;19565;46.602;11.534;2023-08-17T12:53:40;27.70;90.30
33207;DHT22;19565;46.602;11.534;2023-08-17T12:56:08;27.70;90.70
33207;DHT22;19565;46.602;11.534;2023-08-17T12:58:37;27.80;90.70
33207;DHT22;19565;46.602;11.534;2023-08-17T13:01:05;27.80;90.30
33207;DHT22;19565;46.602;11.534;2023-08-17T13:03:33;27.80;90.20
33207;DHT22;19565;46.602;11.534;2023-08-17T13:06:01;27.80;88.60
33207;DHT22;19565;46.602;11.534;2023-08-17T13:08:30;27.70;85.90
33207;DHT22;19565;46.602;11.534;2023-08-17T13:11:00;27.80;87.70
33207;DHT22;19565;46.602;11.534;2023-08-17T13:13:28;27.70;87.90
33207;DHT22;19565;46.602;11.534;2023-08-17T13:15:56;27.80;88.00
33207;DHT22;19565;46.602;11.534;2023-08-17T13:18:24;27.80;88.50
33207;DHT22;19565;46.602;11.534;2023-08-17T13:20:52;27.90;87.50
33207;DHT22;19565;46.602;11.534;2023-08-17T13:23:20;27.90;88.00
33207;DHT22;19565;46.602;11.534;2023-08-17T13:25:50;27.90;88.10
33207;DHT22;19565;46.602;11.534;2023-08-17T13:28:18;27.90;88.50
33207;DHT22;19565;46.602;11.534;2023-08-17T13:30:46;27.80;88.80
33207;DHT22;19565;46.602;11.534;2023-08-17T13:33:14;27.80;87.90
33207;DHT22;19565;46.602;11.534;2023-08-17T13:35:44;27.80;87.50
33207;DHT22;19565;46.602;11.534;2023-08-17T13:38:12;27.70;87.70
33207;DHT22;19565;46.602;11.534;2023-08-17T13:40:40;27.80;87.80
33207;DHT22;19565;46.602;11.534;2023-08-17T13:43:09;27.80;90.00
33207;DHT22;19565;46.602;11.534;2023-08-17T13:45:39;27.90;90.20
33207;DHT22;19565;46.602;11.534;2023-08-17T13:48:07;27.90;90.20
33207;DHT22;19565;46.602;11.534;2023-08-17T13:50:38;27.90;88.60
33207;DHT22;19565;46.602;11.534;2023-08-17T13:53:06;28.00;90.00
33207;DHT22;19565;46.602;11.534;2023-08-17T13:55:34;28.10;89.50
33207;DHT22;19565;46.602;11.534;2023-08-17T13:58:03;28.10;89.40
33207;DHT22;19565;46.602;11.534;2023-08-17T14:00:32;28.20;89.50
33207;DHT22;19565;46.602;11.534;2023-08-17T14:03:00;28.30;89.80
33207;DHT22;19565;46.602;11.534;2023-08-17T14:05:28;28.30;90.50
33207;DHT22;19565;46.602;11.534;2023-08-17T14:07:56;28.30;90.40
33207;DHT22;19565;46.602;11.534;2023-08-17T14:10:24;28.40;89.90
33207;DHT22;19565;46.602;11.534;2023-08-17T14:13:05;28.40;87.30
33207;DHT22;19565;46.602;11.534;2023-08-17T14:15:34;28.50;85.40
33207;DHT22;19565;46.602;11.534;2023-08-17T14:18:03;28.60;83.20
33207;DHT22;19565;46.602;11.534;2023-08-17T14:20:31;28.70;83.40
33207;DHT22;19565;46.602;11.534;2023-08-17T14:22:59;28.70;81.50
33207;DHT22;19565;46.602;11.534;2023-08-17T14:25:27;28.90;79.90
33207;DHT22;19565;46.602;11.534;2023-08-17T14:27:57;29.00;78.00
33207;DHT22;19565;46.602;11.534;2023-08-17T14:30:26;29.20;79.30
33207;DHT22;19565;46.602;11.534;2023-08-17T14:32:55;29.40;78.90
33207;DHT22;19565;46.602;11.534;2023-08-17T14:35:26;29.50;79.70
33207;DHT22;19565;46.602;11.534;2023-08-17T14:37:54;29.60;78.70
33207;DHT22;19565;46.602;11.534;2023-08-17T14:40:25;29.80;78.00
33207;DHT22;19565;46.602;11.534;2023-08-17T14:42:53;29.90;77.10
33207;DHT22;19565;46.602;11.534;2023-08-17T14:45:21;30.00;76.80
33207;DHT22;19565;46.602;11.534;2023-08-17T14:47:49;30.00;75.10
33207;DHT22;19565;46.602;11.534;2023-08-17T14:50:19;30.10;75.20
33207;DHT22;19565;46.602;11.534;2023-08-17T14:52:47;30.20;75.20
33207;DHT22;19565;46.602;11.534;2023-08-17T14:55:15;30.30;77.30
33207;DHT22;19565;46.602;11.534;2023-08-17T14:57:43;30.20;74.90
33207;DHT22;19565;46.602;11.534;2023-08-17T15:00:12;30.10;76.10
33207;DHT22;19565;46.602;11.534;2023-08-17T15:02:43;30.10;75.50
33207;DHT22;19565;46.602;11.534;2023-08-17T15:05:11;30.10;74.90
33207;DHT22;19565;46.602;11.534;2023-08-17T15:07:40;30.20;75.00
33207;DHT22;19565;46.602;11.534;2023-08-17T15:10:09;30.10;74.20
33207;DHT22;19565;46.602;11.534;2023-08-17T15:12:37;30.00;75.00
33207;DHT22;19565;46.602;11.534;2023-08-17T15:15:06;29.80;73.60
33207;DHT22;19565;46.602;11.534;2023-08-17T15:17:35;29.70;74.80
33207;DHT22;19565;46.602;11.534;2023-08-17T15:20:05;29.50;74.70
33207;DHT22;19565;46.602;11.534;2023-08-17T15:22:33;29.40;71.40
33207;DHT22;19565;46.602;11.534;2023-08-17T15:25:03;29.20;71.90
33207;DHT22;19565;46.602;11.534;2023-08-17T15:27:31;29.10;72.30